Current Weather

Casa Grande Muni

Casa Grande, Arizona (KCGZ)

Report from: Tuesday, July 16, 2024 1:56 AM MST
Current time: Tuesday, July 16, 2024 2:19 AM MST

Nearby weather – Weather history – Daily summaries
Weather forecast

Temperature30.6°C (87.1°F)
Heat index30.9°C (87.6°F)
Dew point16.7°C (62.1°F)
Winds 4 kts (2.1 m/s, 4.6 mph) South-Southeast (150°)
Visibility10 mi. (16.1 km)
Clouds Sky clear
Altimeter29.90 in.Hg (1013 mB)
Relative humidity43 %
Density altitude2,146 ft. (654 m)
Sea-level pressure101.0 kPa (1010 mB, 29.83 in.Hg)
Remarks Fully automated report
System requires maintenance
Automated weather observing station with precipitation discriminator
Precipitation sensor not operating
Pressure falling, then rising
Flight conditions Visual Meteorological Conditions
Raw dataKCGZ 160856Z AUTO 15004KT 10SM CLR 31/17 A2990 RMK AO2 SLP103 6//// T03060167 55002 PNO $
An error has occurred. This application may no longer respond until reloaded. Reload 🗙